Time;durP1;ratioP1;P1;durP2;ratioP2;P2;SDS_P1;SDS_P2;PMS_P1;PMS_P2;Temp;Humidity;BMP_temperature;BMP_pressure;BME280_temperature;BME280_humidity;BME280_pressure;Samples;Min_cycle;Max_cycle;Signal;HPM_P1;HPM_P2
2023/08/12 00:00:38;;;;;;;7.05;3.65;;;26.70;70.10;;;;;;7419160;19;19921;-79
2023/08/12 00:03:04;;;;;;;9.82;4.13;;;26.70;70.10;;;;;;7417643;19;20236;-79
2023/08/12 00:05:35;;;;;;;8.82;4.00;;;26.70;70.20;;;;;;7417831;19;19935;-78
2023/08/12 00:08:01;;;;;;;9.55;3.80;;;26.70;70.50;;;;;;7411823;19;19911;-78
2023/08/12 00:10:27;;;;;;;9.93;4.03;;;26.60;70.50;;;;;;7406957;19;20836;-78
2023/08/12 00:12:55;;;;;;;12.10;3.90;;;26.60;71.10;;;;;;7414021;19;19955;-78
2023/08/12 00:15:21;;;;;;;9.75;3.88;;;26.60;71.30;;;;;;7407413;19;19911;-79
2023/08/12 00:17:47;;;;;;;8.38;4.00;;;26.50;71.50;;;;;;7416904;19;19935;-81
2023/08/12 00:20:13;;;;;;;9.88;4.10;;;26.50;71.50;;;;;;7418783;19;19921;-78
2023/08/12 00:22:40;;;;;;;10.32;4.07;;;26.40;71.80;;;;;;7412875;19;20306;-77
2023/08/12 00:25:08;;;;;;;10.68;4.78;;;26.40;72.20;;;;;;7410770;19;19926;-78
2023/08/12 00:27:34;;;;;;;12.02;4.85;;;26.40;72.40;;;;;;7415329;19;19982;-78
2023/08/12 00:29:59;;;;;;;7.57;4.32;;;26.30;73.20;;;;;;7412700;19;19923;-78
2023/08/12 00:32:27;;;;;;;8.45;4.13;;;26.30;72.70;;;;;;7421003;19;19919;-79
2023/08/12 00:34:54;;;;;;;12.05;4.78;;;26.30;73.00;;;;;;7417375;19;19919;-79
2023/08/12 00:37:20;;;;;;;9.63;4.50;;;26.20;73.10;;;;;;7420797;19;19947;-80
2023/08/12 00:39:45;;;;;;;9.68;4.05;;;26.20;73.30;;;;;;7400655;19;19915;-80
2023/08/12 00:42:14;;;;;;;9.98;4.43;;;26.20;73.40;;;;;;7422421;19;19963;-80
2023/08/12 00:44:40;;;;;;;7.95;3.78;;;26.30;73.40;;;;;;7421586;19;19978;-79
2023/08/12 00:47:06;;;;;;;9.75;4.35;;;26.20;73.40;;;;;;7414840;19;19933;-78
2023/08/12 00:49:32;;;;;;;;;;;26.20;73.60;;;;;;7420814;19;20025;-80
2023/08/12 00:51:59;;;;;;;10.82;4.70;;;26.10;73.80;;;;;;7422624;19;19911;-80
2023/08/12 00:54:28;;;;;;;10.93;5.18;;;26.20;73.80;;;;;;7420322;19;19915;-80
2023/08/12 00:56:54;;;;;;;9.20;4.38;;;26.30;73.80;;;;;;7413246;19;19910;-77
2023/08/12 00:59:20;;;;;;;9.52;4.07;;;26.20;73.60;;;;;;7379877;19;19938;-78
2023/08/12 01:01:47;;;;;;;11.50;4.10;;;26.20;73.30;;;;;;7412316;19;19914;-78
2023/08/12 01:04:13;;;;;;;9.85;4.28;;;26.30;73.30;;;;;;7410971;19;19914;-78
2023/08/12 01:06:40;;;;;;;10.70;4.65;;;26.20;73.30;;;;;;7414337;19;19918;-78
2023/08/12 01:09:09;;;;;;;9.32;4.10;;;26.20;73.70;;;;;;7393983;19;19915;-78
2023/08/12 01:11:55;;;;;;;7.53;4.13;;;26.20;74.10;;;;;;7413638;19;19913;-79
2023/08/12 01:14:54;;;;;;;10.73;4.60;;;26.10;74.10;;;;;;7424565;19;19911;-80
2023/08/12 01:17:22;;;;;;;9.15;4.00;;;26.20;74.70;;;;;;7399356;19;19919;-79
2023/08/12 01:19:48;;;;;;;12.85;5.60;;;26.20;74.90;;;;;;7419592;19;20729;-79
2023/08/12 01:22:16;;;;;;;9.10;4.03;;;26.20;75.30;;;;;;7409107;19;19945;-78
2023/08/12 01:24:43;;;;;;;13.82;4.55;;;26.20;75.90;;;;;;7413598;19;19978;-79
2023/08/12 01:27:14;;;;;;;11.90;4.15;;;26.10;75.40;;;;;;7411939;19;19914;-78
2023/08/12 01:29:43;;;;;;;9.60;4.18;;;26.20;75.60;;;;;;7410534;19;19914;-78
2023/08/12 01:32:34;;;;;;;11.10;4.53;;;26.10;76.30;;;;;;7412071;19;19921;-79
2023/08/12 01:35:07;;;;;;;9.88;4.40;;;26.10;76.10;;;;;;7416135;19;20457;-79
2023/08/12 01:37:35;;;;;;;8.90;4.07;;;26.20;76.50;;;;;;7414909;19;19978;-79
2023/08/12 01:40:09;;;;;;;9.98;4.50;;;26.10;76.50;;;;;;7410179;19;20014;-78
2023/08/12 01:42:35;;;;;;;9.77;4.28;;;26.10;76.70;;;;;;7410496;19;20253;-79
2023/08/12 01:45:03;;;;;;;12.57;4.20;;;26.10;76.80;;;;;;7358081;19;19919;-78
2023/08/12 01:47:29;;;;;;;10.65;5.10;;;26.20;76.90;;;;;;7420023;19;19923;-80
2023/08/12 01:49:56;;;;;;;13.38;4.57;;;26.10;76.70;;;;;;7422256;19;19918;-80
2023/08/12 01:52:22;;;;;;;12.65;4.53;;;26.10;77.60;;;;;;7416786;19;21376;-80
2023/08/12 01:54:48;;;;;;;;;;;26.10;77.30;;;;;;7423090;19;20109;-79
2023/08/12 01:57:14;;;;;;;8.23;4.43;;;26.10;77.20;;;;;;7410386;19;19911;-79
2023/08/12 01:59:40;;;;;;;11.65;5.03;;;26.10;77.50;;;;;;7414721;19;20014;-79
2023/08/12 02:02:07;;;;;;;10.27;5.38;;;26.10;77.90;;;;;;7415707;19;19917;-78
2023/08/12 02:04:36;;;;;;;10.70;5.32;;;26.10;78.20;;;;;;7417052;19;19935;-79
2023/08/12 02:07:02;;;;;;;11.32;5.65;;;26.10;78.60;;;;;;7363589;19;19978;-79
2023/08/12 02:09:28;;;;;;;10.50;4.47;;;26.10;78.80;;;;;;7412662;19;19915;-78
2023/08/12 02:11:54;;;;;;;14.63;4.75;;;26.00;79.10;;;;;;7412307;19;19922;-78
2023/08/12 02:14:20;;;;;;;8.00;4.32;;;26.00;79.40;;;;;;7417350;19;19918;-80
2023/08/12 02:16:45;;;;;;;9.10;4.70;;;26.10;79.30;;;;;;7416998;19;19922;-79
2023/08/12 02:19:11;;;;;;;11.63;4.90;;;26.00;79.60;;;;;;7418222;19;19918;-79
2023/08/12 02:21:37;;;;;;;10.60;4.65;;;26.00;80.00;;;;;;7418451;19;19942;-78
2023/08/12 02:24:03;;;;;;;9.05;4.57;;;26.00;79.90;;;;;;7407771;19;19915;-78
2023/08/12 02:26:29;;;;;;;12.63;5.03;;;25.90;80.10;;;;;;7411485;19;19938;-79
2023/08/12 02:28:56;;;;;;;10.52;4.53;;;25.90;80.40;;;;;;7413066;19;20339;-78
2023/08/12 02:31:22;;;;;;;12.48;4.53;;;25.90;80.80;;;;;;7410824;19;19937;-77
2023/08/12 02:33:49;;;;;;;10.93;5.03;;;25.80;81.10;;;;;;7410387;19;19919;-78
2023/08/12 02:36:15;;;;;;;10.90;5.60;;;25.80;82.00;;;;;;7406964;19;19937;-78
2023/08/12 02:38:43;;;;;;;11.10;4.78;;;25.80;81.80;;;;;;7409437;19;20350;-79
2023/08/12 02:41:09;;;;;;;10.57;4.97;;;25.80;82.10;;;;;;7410973;19;19910;-78
2023/08/12 02:43:35;;;;;;;10.68;4.82;;;25.80;82.40;;;;;;7414772;19;19932;-79
2023/08/12 02:46:02;;;;;;;10.98;4.22;;;25.70;82.50;;;;;;7417446;19;19910;-80
2023/08/12 02:48:28;;;;;;;9.30;4.32;;;25.70;82.70;;;;;;7419306;19;19947;-79
2023/08/12 02:50:54;;;;;;;11.07;4.40;;;25.80;82.60;;;;;;7416216;19;20311;-78
2023/08/12 02:53:20;;;;;;;12.05;4.75;;;25.70;82.70;;;;;;7413010;19;19929;-78
2023/08/12 02:55:46;;;;;;;10.63;5.50;;;25.70;83.20;;;;;;7412790;19;19926;-78
2023/08/12 02:58:12;;;;;;;7.90;4.05;;;25.70;83.20;;;;;;7412903;19;19948;-78
2023/08/12 03:00:43;;;;;;;9.32;4.88;;;25.60;83.20;;;;;;7409457;19;19927;-79
2023/08/12 03:03:09;;;;;;;8.68;5.20;;;25.60;83.20;;;;;;7409791;19;19921;-78
2023/08/12 03:05:35;;;;;;;11.20;4.15;;;25.50;83.50;;;;;;7413654;19;19934;-79
2023/08/12 03:08:03;;;;;;;9.50;4.22;;;25.50;83.70;;;;;;7417479;19;19929;-79
2023/08/12 03:10:29;;;;;;;10.45;4.43;;;25.50;84.20;;;;;;7419514;19;19957;-78
2023/08/12 03:12:55;;;;;;;11.23;4.32;;;25.40;84.50;;;;;;7410671;19;20459;-78
2023/08/12 03:15:21;;;;;;;11.75;4.05;;;25.40;85.60;;;;;;7409208;19;19927;-78
2023/08/12 03:17:47;;;;;;;8.70;5.22;;;25.30;85.20;;;;;;7408692;19;19963;-78
2023/08/12 03:20:13;;;;;;;10.50;4.88;;;25.30;85.40;;;;;;7407741;19;19990;-78
2023/08/12 03:22:39;;;;;;;10.25;4.60;;;25.30;85.30;;;;;;7408520;19;19924;-78
2023/08/12 03:25:06;;;;;;;9.65;4.50;;;25.30;85.20;;;;;;7405045;19;19925;-78
2023/08/12 03:27:32;;;;;;;9.05;4.70;;;25.20;85.40;;;;;;7405442;19;19918;-78
2023/08/12 03:29:59;;;;;;;9.30;4.35;;;25.30;85.40;;;;;;7408878;19;19918;-76
2023/08/12 03:32:25;;;;;;;8.57;4.03;;;25.20;85.30;;;;;;7407456;19;20257;-79
2023/08/12 03:34:55;;;;;;;13.73;4.57;;;25.30;84.70;;;;;;7407129;19;19918;-78
2023/08/12 03:37:20;;;;;;;9.40;4.18;;;25.30;84.30;;;;;;7357693;19;19962;-78
2023/08/12 03:39:46;;;;;;;9.43;4.00;;;25.30;83.90;;;;;;7410552;19;19927;-79
2023/08/12 03:42:12;;;;;;;9.70;4.13;;;25.30;83.60;;;;;;7404297;19;19934;-78
2023/08/12 03:44:38;;;;;;;9.93;4.28;;;25.20;83.40;;;;;;7408659;19;20330;-78
2023/08/12 03:47:04;;;;;;;10.73;4.28;;;25.20;83.70;;;;;;7405990;19;19923;-78
2023/08/12 03:49:29;;;;;;;12.60;4.57;;;25.20;84.10;;;;;;7414154;19;19919;-79
2023/08/12 03:51:56;;;;;;;10.07;4.10;;;25.10;84.80;;;;;;7408659;19;20232;-77
2023/08/12 03:54:24;;;;;;;9.00;3.70;;;25.10;85.50;;;;;;7406690;19;19931;-78
2023/08/12 03:56:49;;;;;;;8.80;3.75;;;25.10;86.20;;;;;;7415167;19;19915;-80
2023/08/12 03:59:15;;;;;;;8.68;4.13;;;25.00;86.50;;;;;;7416989;19;19923;-79
2023/08/12 04:01:41;;;;;;;10.52;4.57;;;25.10;88.20;;;;;;7419179;19;19967;-79
2023/08/12 04:04:10;;;;;;;;;;;25.10;88.80;;;;;;7416638;19;19915;-78
2023/08/12 04:06:36;;;;;;;8.52;4.10;;;25.00;89.60;;;;;;7419476;19;19939;-79
2023/08/12 04:09:03;;;;;;;9.15;4.30;;;25.00;90.40;;;;;;7425543;19;19922;-80
2023/08/12 04:11:28;;;;;;;10.38;4.80;;;25.00;90.80;;;;;;7425347;19;19918;-80
2023/08/12 04:13:54;;;;;;;8.45;3.88;;;24.90;91.00;;;;;;7427140;19;20358;-81
2023/08/12 04:16:21;;;;;;;8.60;4.00;;;24.80;91.40;;;;;;7418470;19;19922;-78
2023/08/12 04:18:48;;;;;;;10.75;4.70;;;24.90;91.30;;;;;;7420251;19;19929;-79
2023/08/12 04:21:14;;;;;;;10.55;4.30;;;24.90;91.20;;;;;;7415832;19;19914;-78
2023/08/12 04:23:42;;;;;;;9.35;4.30;;;24.80;91.50;;;;;;7423237;19;19915;-79
2023/08/12 04:26:08;;;;;;;7.18;3.92;;;24.80;92.10;;;;;;7415731;19;19926;-79
2023/08/12 04:28:34;;;;;;;10.70;4.20;;;24.80;92.30;;;;;;7417805;19;19942;-78
2023/08/12 04:31:00;;;;;;;11.63;4.35;;;24.70;92.90;;;;;;7418105;19;19915;-78
2023/08/12 04:33:25;;;;;;;9.35;4.28;;;24.70;93.20;;;;;;7415643;19;19930;-79
2023/08/12 04:35:53;;;;;;;9.63;4.57;;;24.70;93.80;;;;;;7416029;19;20250;-78
2023/08/12 04:38:18;;;;;;;10.45;4.32;;;24.70;94.30;;;;;;7412395;19;19955;-77
2023/08/12 04:40:44;;;;;;;8.70;4.38;;;24.70;94.50;;;;;;7411085;19;19930;-78
2023/08/12 04:43:13;;;;;;;8.50;4.15;;;24.70;94.20;;;;;;7359925;19;19927;-78
2023/08/12 04:45:39;;;;;;;13.98;4.75;;;24.70;94.10;;;;;;7414785;19;20254;-78
2023/08/12 04:48:06;;;;;;;9.23;4.28;;;24.60;94.20;;;;;;7413191;19;19970;-78
2023/08/12 04:50:34;;;;;;;13.20;4.50;;;24.60;94.00;;;;;;7415149;19;20265;-78
2023/08/12 04:53:00;;;;;;;12.20;4.70;;;24.60;94.10;;;;;;7413040;19;19922;-78
2023/08/12 04:55:27;;;;;;;7.93;3.70;;;24.60;94.70;;;;;;7410082;19;19945;-78
2023/08/12 04:57:56;;;;;;;11.25;4.68;;;24.60;95.00;;;;;;7370423;19;19947;-78
2023/08/12 05:00:22;;;;;;;11.82;5.15;;;24.60;95.70;;;;;;7413472;19;19930;-80
2023/08/12 05:02:48;;;;;;;;;;;24.60;96.40;;;;;;7413840;19;20773;-78
2023/08/12 05:05:14;;;;;;;8.48;4.30;;;24.60;96.10;;;;;;7409121;19;19917;-79
2023/08/12 05:07:41;;;;;;;11.00;4.78;;;24.60;96.30;;;;;;7414260;19;19927;-78
2023/08/12 05:10:09;;;;;;;12.48;4.97;;;24.60;96.90;;;;;;7412314;19;19922;-79
2023/08/12 05:12:34;;;;;;;9.85;5.07;;;24.60;97.10;;;;;;7422233;19;19921;-79
2023/08/12 05:15:00;;;;;;;11.10;5.30;;;24.70;97.10;;;;;;7422041;19;19919;-80
2023/08/12 05:17:26;;;;;;;10.82;4.93;;;24.60;97.20;;;;;;7420337;19;19914;-78
2023/08/12 05:19:55;;;;;;;12.55;5.05;;;24.70;97.80;;;;;;7415173;19;19943;-79
2023/08/12 05:22:21;;;;;;;10.18;4.75;;;24.70;98.00;;;;;;7414918;19;19926;-79
2023/08/12 05:24:47;;;;;;;11.77;5.55;;;24.70;98.70;;;;;;7413571;19;19915;-79
2023/08/12 05:27:13;;;;;;;9.05;5.15;;;24.70;98.90;;;;;;7413003;19;19925;-79
2023/08/12 05:29:38;;;;;;;14.90;5.60;;;24.70;99.10;;;;;;7416719;19;20010;-78
2023/08/12 05:32:05;;;;;;;10.85;5.22;;;24.70;99.30;;;;;;7367031;19;19937;-77
2023/08/12 05:34:30;;;;;;;14.00;5.85;;;24.60;99.80;;;;;;7414453;19;19922;-77
2023/08/12 05:36:56;;;;;;;11.57;5.50;;;24.70;99.90;;;;;;7411530;19;19921;-79
2023/08/12 05:39:22;;;;;;;12.10;5.45;;;24.70;99.90;;;;;;7397769;19;19939;-77
2023/08/12 05:41:48;;;;;;;12.02;5.65;;;24.70;99.90;;;;;;7419218;19;19910;-79
2023/08/12 05:44:14;;;;;;;12.65;5.60;;;24.70;99.90;;;;;;7419474;19;19914;-79
2023/08/12 05:46:40;;;;;;;11.95;5.55;;;24.70;99.90;;;;;;7397746;19;20281;-79
2023/08/12 05:49:05;;;;;;;12.80;6.53;;;24.80;99.90;;;;;;7414094;19;19922;-78
2023/08/12 05:51:31;;;;;;;12.85;6.15;;;24.80;99.90;;;;;;7411767;19;19922;-78
2023/08/12 05:53:57;;;;;;;11.13;5.95;;;24.80;99.90;;;;;;7416867;19;19951;-79
2023/08/12 05:56:23;;;;;;;10.60;5.18;;;24.90;99.90;;;;;;7412547;19;19918;-77
2023/08/12 05:58:49;;;;;;;12.02;5.45;;;24.90;99.90;;;;;;7409359;19;19919;-78
2023/08/12 06:01:15;;;;;;;10.77;5.63;;;25.00;99.90;;;;;;7409306;19;20295;-79
2023/08/12 06:03:41;;;;;;;11.68;5.45;;;25.00;99.90;;;;;;7412352;19;19919;-78
2023/08/12 06:06:06;;;;;;;13.35;5.85;;;25.00;99.90;;;;;;7411768;19;19910;-79
2023/08/12 06:08:34;;;;;;;13.20;5.45;;;25.00;99.70;;;;;;7420530;19;19954;-80
2023/08/12 06:10:59;;;;;;;12.75;5.30;;;25.10;99.70;;;;;;7412833;19;20330;-78
2023/08/12 06:13:25;;;;;;;12.68;5.47;;;25.10;99.60;;;;;;7415966;19;19919;-79
2023/08/12 06:15:51;;;;;;;11.07;5.20;;;25.20;99.50;;;;;;7416627;19;19910;-78
2023/08/12 06:18:17;;;;;;;11.50;5.85;;;25.30;99.70;;;;;;7415661;19;19919;-80
2023/08/12 06:20:43;;;;;;;11.73;5.47;;;25.30;99.70;;;;;;7420684;19;19919;-80
2023/08/12 06:23:09;;;;;;;14.70;5.80;;;25.30;99.60;;;;;;7418956;19;19914;-81
2023/08/12 06:25:36;;;;;;;11.15;5.20;;;25.40;99.40;;;;;;7420835;19;19937;-79
2023/08/12 06:28:04;;;;;;;9.40;5.43;;;25.40;99.20;;;;;;7416889;19;19910;-79
2023/08/12 06:30:30;;;;;;;11.50;5.40;;;25.50;99.10;;;;;;7418542;19;19910;-80
2023/08/12 06:32:57;;;;;;;11.25;5.57;;;25.60;98.80;;;;;;7415398;19;19926;-78
2023/08/12 06:35:23;;;;;;;12.88;5.63;;;25.60;98.60;;;;;;7411922;19;19961;-78
2023/08/12 06:37:48;;;;;;;14.55;5.72;;;25.70;98.10;;;;;;7390352;19;19923;-78
2023/08/12 06:40:14;;;;;;;10.77;5.20;;;25.80;97.90;;;;;;7411445;19;19915;-79
2023/08/12 06:42:42;;;;;;;10.95;5.25;;;25.80;97.50;;;;;;7412997;19;19910;-79
2023/08/12 06:45:10;;;;;;;10.60;5.28;;;25.90;97.20;;;;;;7410718;19;19918;-78
2023/08/12 06:47:35;;;;;;;11.48;5.07;;;25.90;97.00;;;;;;7416197;19;19932;-78
2023/08/12 06:50:01;;;;;;;13.02;5.63;;;26.00;97.10;;;;;;7378861;19;19914;-78
2023/08/12 06:52:27;;;;;;;12.10;5.75;;;26.00;97.30;;;;;;7405512;19;19918;-78
2023/08/12 06:54:53;;;;;;;12.00;5.35;;;26.00;97.30;;;;;;7409021;19;19911;-78
2023/08/12 06:57:19;;;;;;;8.63;5.15;;;26.10;97.40;;;;;;7404303;19;19941;-78
2023/08/12 06:59:45;;;;;;;11.38;5.32;;;26.20;97.30;;;;;;7408707;19;20270;-78
2023/08/12 07:02:13;;;;;;;10.70;5.43;;;26.20;97.20;;;;;;7385769;19;20002;-80
2023/08/12 07:04:39;;;;;;;11.10;5.00;;;26.30;96.80;;;;;;7407960;19;19982;-78
2023/08/12 07:07:06;;;;;;;11.00;5.03;;;26.40;96.40;;;;;;7407456;19;19914;-78
2023/08/12 07:09:32;;;;;;;11.65;5.15;;;26.50;96.30;;;;;;7406065;19;19929;-77
2023/08/12 07:11:58;;;;;;;13.13;5.60;;;26.50;96.00;;;;;;7402454;19;19974;-78
2023/08/12 07:14:25;;;;;;;11.82;4.95;;;26.60;95.70;;;;;;7406205;19;19922;-78
2023/08/12 07:16:51;;;;;;;10.88;4.72;;;26.70;95.60;;;;;;7405490;19;19914;-77
2023/08/12 07:19:17;;;;;;;12.18;5.38;;;26.70;95.30;;;;;;7406450;19;20248;-77
2023/08/12 07:21:43;;;;;;;12.60;6.10;;;26.80;95.10;;;;;;7406833;19;20040;-78
2023/08/12 07:24:09;;;;;;;12.40;6.20;;;26.80;95.10;;;;;;7408066;19;19930;-77
2023/08/12 07:26:35;;;;;;;11.13;5.43;;;26.80;95.40;;;;;;7408966;19;19921;-79
2023/08/12 07:29:01;;;;;;;11.30;5.10;;;26.90;95.20;;;;;;7421260;19;19922;-77
2023/08/12 07:31:27;;;;;;;12.57;6.15;;;27.00;95.20;;;;;;7412181;19;19922;-78
2023/08/12 07:33:55;;;;;;;10.57;6.20;;;27.00;95.20;;;;;;7416841;19;19937;-78
2023/08/12 07:36:22;;;;;;;13.95;6.57;;;27.00;95.20;;;;;;7412413;19;19914;-78
2023/08/12 07:38:47;;;;;;;;;;;27.10;95.20;;;;;;7416207;19;19921;-78
2023/08/12 07:41:13;;;;;;;14.25;5.53;;;27.10;95.20;;;;;;7414996;19;19946;-78
2023/08/12 07:43:39;;;;;;;11.00;5.20;;;27.20;95.00;;;;;;7361527;19;19914;-77
2023/08/12 07:46:07;;;;;;;10.30;5.22;;;27.20;95.00;;;;;;7412415;19;19926;-78
2023/08/12 07:48:33;;;;;;;13.60;4.75;;;27.30;95.20;;;;;;7414267;19;19918;-80
2023/08/12 07:50:59;;;;;;;11.52;4.97;;;27.20;95.70;;;;;;7416651;19;19911;-79
2023/08/12 07:53:26;;;;;;;12.48;4.72;;;27.30;95.20;;;;;;7410952;19;19958;-78
2023/08/12 07:55:52;;;;;;;10.32;4.88;;;27.40;94.90;;;;;;7411785;19;20011;-78
2023/08/12 07:58:19;;;;;;;12.15;6.32;;;27.40;95.20;;;;;;7410328;19;19910;-79
2023/08/12 08:00:45;;;;;;;9.85;4.65;;;27.50;95.00;;;;;;7418008;19;19934;-77
2023/08/12 08:03:10;;;;;;;9.55;4.63;;;27.70;94.50;;;;;;7393132;19;19919;-79
2023/08/12 08:05:42;;;;;;;12.45;5.80;;;27.80;94.70;;;;;;7423636;19;19922;-79
2023/08/12 08:08:08;;;;;;;10.02;5.35;;;27.80;94.90;;;;;;7416733;19;20307;-80
2023/08/12 08:10:33;;;;;;;11.25;5.45;;;27.70;95.10;;;;;;7415196;19;19922;-79
2023/08/12 08:12:59;;;;;;;8.73;5.57;;;27.80;95.10;;;;;;7416820;19;19932;-78
2023/08/12 08:15:25;;;;;;;10.00;5.18;;;27.90;94.80;;;;;;7415691;19;19918;-79
2023/08/12 08:17:51;;;;;;;10.82;5.07;;;27.90;94.40;;;;;;7413563;19;19915;-80
2023/08/12 08:20:18;;;;;;;8.57;4.50;;;27.90;94.50;;;;;;7416462;19;19915;-78
2023/08/12 08:22:43;;;;;;;9.88;4.78;;;28.00;94.60;;;;;;7416087;19;19914;-79
2023/08/12 08:25:09;;;;;;;12.27;5.20;;;28.00;94.50;;;;;;7418127;19;19918;-80
2023/08/12 08:27:36;;;;;;;10.88;5.95;;;28.00;94.10;;;;;;7416840;19;19914;-78
2023/08/12 08:30:03;;;;;;;8.93;4.88;;;28.10;93.80;;;;;;7413357;19;19914;-79
2023/08/12 08:32:30;;;;;;;21.48;5.95;;;28.10;93.90;;;;;;7419131;19;20263;-79
2023/08/12 08:34:55;;;;;;;13.05;4.68;;;28.20;93.90;;;;;;7419308;19;19975;-79
2023/08/12 08:37:22;;;;;;;11.85;6.40;;;28.20;94.00;;;;;;7416153;19;19915;-80
2023/08/12 08:39:47;;;;;;;;;;;28.30;93.60;;;;;;7421979;19;20023;-80
2023/08/12 08:42:19;;;;;;;11.48;5.20;;;28.40;93.80;;;;;;7394055;19;20335;-79
2023/08/12 08:44:55;;;;;;;11.98;6.68;;;29.50;92.70;;;;;;7411275;19;19923;-78
2023/08/12 08:47:26;;;;;;;12.43;6.03;;;31.20;86.90;;;;;;7413126;19;19981;-78
2023/08/12 08:49:57;;;;;;;10.68;5.25;;;32.30;80.10;;;;;;7415169;19;19922;-78
2023/08/12 08:52:27;;;;;;;10.65;6.05;;;33.20;75.50;;;;;;7412209;19;19942;-77
2023/08/12 08:54:53;;;;;;;9.57;6.43;;;33.60;73.30;;;;;;7417479;19;19936;-79
2023/08/12 08:57:22;;;;;;;;;;;34.00;72.10;;;;;;7414344;19;19958;-79
2023/08/12 08:59:48;;;;;;;10.70;5.85;;;33.80;70.60;;;;;;7414211;19;19971;-79
2023/08/12 09:02:18;;;;;;;10.70;6.25;;;33.30;73.10;;;;;;7411815;19;20480;-78
2023/08/12 09:04:45;;;;;;;10.18;6.63;;;32.50;75.00;;;;;;7414783;19;19928;-79
2023/08/12 09:07:12;;;;;;;15.07;7.40;;;32.60;75.40;;;;;;7410951;19;20346;-79
2023/08/12 09:09:48;;;;;;;9.48;6.43;;;33.20;74.20;;;;;;7418478;19;19918;-78
2023/08/12 09:12:16;;;;;;;11.35;7.18;;;34.00;71.90;;;;;;7413377;19;19925;-79
2023/08/12 09:14:43;;;;;;;11.35;6.32;;;34.60;70.20;;;;;;7414550;19;19922;-80
2023/08/12 09:17:11;;;;;;;10.27;6.72;;;35.00;68.60;;;;;;7415261;19;20006;-79
2023/08/12 09:19:38;;;;;;;8.27;5.05;;;35.30;67.00;;;;;;7419613;19;20318;-80
2023/08/12 09:22:05;;;;;;;13.07;8.13;;;35.40;66.70;;;;;;7419622;19;19918;-80
2023/08/12 09:24:31;;;;;;;10.27;6.80;;;35.70;65.60;;;;;;7422522;19;19952;-80
2023/08/12 09:26:57;;;;;;;9.85;7.38;;;35.10;65.50;;;;;;7423985;19;19930;-80
2023/08/12 09:29:33;;;;;;;9.10;6.45;;;35.10;66.30;;;;;;7422300;19;19937;-81
2023/08/12 09:32:15;;;;;;;10.60;7.20;;;35.70;65.40;;;;;;7422239;19;19929;-82
2023/08/12 09:34:54;;;;;;;11.82;6.63;;;35.70;64.40;;;;;;7423176;19;19926;-80
2023/08/12 09:37:23;;;;;;;10.38;5.82;;;35.90;64.00;;;;;;7422520;19;20266;-80
2023/08/12 09:39:53;;;;;;;11.88;7.03;;;34.90;65.20;;;;;;7388429;19;20055;-80
2023/08/12 09:42:19;;;;;;;9.18;5.65;;;33.50;68.10;;;;;;7417520;19;20269;-79
2023/08/12 09:44:45;;;;;;;10.05;7.40;;;33.80;68.10;;;;;;7414828;19;19911;-78
2023/08/12 09:47:11;;;;;;;9.98;6.55;;;34.80;67.10;;;;;;7409705;19;19929;-78
2023/08/12 09:49:38;;;;;;;10.00;7.07;;;35.20;65.50;;;;;;7413626;19;19914;-79
2023/08/12 09:52:07;;;;;;;10.30;7.55;;;35.60;64.00;;;;;;7415630;19;19926;-78
2023/08/12 09:54:34;;;;;;;8.73;7.25;;;35.90;62.50;;;;;;7413762;19;20380;-79
2023/08/12 09:57:02;;;;;;;10.30;6.68;;;36.40;60.50;;;;;;7414041;19;19919;-78
2023/08/12 09:59:32;;;;;;;10.20;7.22;;;36.50;60.70;;;;;;7418277;19;19918;-81
2023/08/12 10:01:58;;;;;;;8.77;7.60;;;35.80;61.10;;;;;;7421156;19;19915;-80
2023/08/12 10:04:28;;;;;;;8.35;7.40;;;36.50;60.50;;;;;;7419410;19;19911;-81
2023/08/12 10:06:55;;;;;;;9.25;6.90;;;36.30;60.20;;;;;;7420092;19;19934;-80
2023/08/12 10:09:23;;;;;;;10.07;7.05;;;36.60;59.30;;;;;;7417412;19;20555;-80
2023/08/12 10:11:50;;;;;;;11.77;6.53;;;36.70;59.10;;;;;;7416282;19;19937;-80
2023/08/12 10:14:17;;;;;;;9.32;6.32;;;36.90;58.30;;;;;;7360354;19;19919;-79
2023/08/12 10:16:46;;;;;;;8.32;6.88;;;36.80;58.50;;;;;;7413884;19;20334;-78
2023/08/12 10:19:15;;;;;;;9.30;6.88;;;35.70;61.40;;;;;;7413324;19;19947;-78
2023/08/12 10:21:43;;;;;;;8.20;6.07;;;35.40;61.10;;;;;;7413805;19;19918;-79
2023/08/12 10:24:11;;;;;;;8.82;6.57;;;35.20;61.60;;;;;;7411263;19;19922;-78
2023/08/12 10:26:38;;;;;;;8.40;6.53;;;35.10;61.90;;;;;;7418078;19;20039;-81
2023/08/12 10:29:04;;;;;;;9.02;5.72;;;35.10;62.20;;;;;;7420124;19;19915;-81
2023/08/12 10:31:34;;;;;;;9.80;6.85;;;35.30;61.20;;;;;;7416157;19;19914;-78
2023/08/12 10:34:00;;;;;;;9.40;6.25;;;34.50;62.60;;;;;;7410612;19;19920;-79
2023/08/12 10:36:27;;;;;;;9.50;6.53;;;34.50;62.50;;;;;;7414313;19;19939;-79
2023/08/12 10:38:53;;;;;;;7.47;5.32;;;34.10;63.50;;;;;;7412822;19;19922;-78
2023/08/12 10:41:25;;;;;;;8.85;3.95;;;34.10;63.70;;;;;;7410857;19;20143;-78
2023/08/12 10:43:56;;;;;;;9.50;6.13;;;34.50;63.50;;;;;;7413948;19;19969;-79
2023/08/12 10:46:23;;;;;;;11.55;6.85;;;34.60;63.20;;;;;;7409373;19;19921;-79
2023/08/12 10:49:03;;;;;;;6.53;3.67;;;34.20;64.30;;;;;;7359757;19;20541;-78
2023/08/12 10:51:50;;;;;;;9.40;5.53;;;33.00;67.70;;;;;;7411039;19;19918;-79
2023/08/12 10:54:16;;;;;;;8.98;5.85;;;33.40;66.20;;;;;;7413399;19;19923;-78
2023/08/12 10:57:01;;;;;;;8.30;5.38;;;33.40;66.10;;;;;;7412852;19;19926;-79
2023/08/12 10:59:45;;;;;;;9.32;4.90;;;33.20;66.10;;;;;;7414704;19;20270;-79
2023/08/12 11:02:30;;;;;;;6.65;5.03;;;33.70;64.90;;;;;;7413750;19;19927;-79
2023/08/12 11:05:00;;;;;;;8.30;5.43;;;33.80;63.80;;;;;;7414445;19;19922;-79
2023/08/12 11:07:33;;;;;;;7.53;5.00;;;33.80;63.00;;;;;;7414595;19;20342;-79
2023/08/12 11:10:14;;;;;;;8.23;5.15;;;33.80;63.70;;;;;;7417029;19;19940;-80
2023/08/12 11:12:41;;;;;;;7.13;5.50;;;34.50;62.90;;;;;;7419677;19;19929;-81
2023/08/12 11:15:09;;;;;;;8.48;4.97;;;34.40;61.60;;;;;;7417951;19;19918;-83
2023/08/12 11:17:37;;;;;;;8.15;4.38;;;34.60;60.50;;;;;;7418037;19;19918;-80
2023/08/12 11:20:09;;;;;;;6.53;4.72;;;34.30;60.00;;;;;;7414581;19;20319;-81
2023/08/12 11:22:37;;;;;;;6.88;3.97;;;34.10;61.50;;;;;;7416798;19;19919;-81
2023/08/12 11:25:07;;;;;;;7.55;4.95;;;33.70;63.10;;;;;;7416320;19;19986;-81
2023/08/12 11:27:44;;;;;;;8.38;4.93;;;33.80;63.00;;;;;;7418803;19;19919;-81
2023/08/12 11:30:16;;;;;;;7.57;5.10;;;33.50;64.60;;;;;;7415075;19;19910;-82
2023/08/12 11:32:45;;;;;;;8.00;4.78;;;33.40;63.70;;;;;;7416612;19;19907;-80
2023/08/12 11:35:11;;;;;;;8.07;5.18;;;33.60;62.10;;;;;;7415462;19;19918;-80
2023/08/12 11:37:38;;;;;;;8.45;4.55;;;33.40;62.90;;;;;;7364433;19;19918;-81
2023/08/12 11:40:06;;;;;;;10.82;5.25;;;33.60;63.50;;;;;;7416497;19;19946;-81
2023/08/12 11:42:38;;;;;;;7.63;4.45;;;33.70;62.60;;;;;;7421244;19;20396;-82
2023/08/12 11:45:07;;;;;;;8.80;4.82;;;33.70;62.60;;;;;;7417146;19;19955;-81
2023/08/12 11:47:38;;;;;;;7.90;4.30;;;33.50;63.00;;;;;;7418744;19;19941;-79
2023/08/12 11:50:09;;;;;;;8.23;5.07;;;33.50;62.10;;;;;;7412832;19;19914;-79
2023/08/12 11:52:37;;;;;;;7.90;4.78;;;33.90;61.00;;;;;;7414668;19;19955;-81
2023/08/12 11:55:04;;;;;;;9.57;6.53;;;34.40;61.40;;;;;;7414799;19;19922;-79
2023/08/12 11:57:34;;;;;;;8.15;5.50;;;35.00;59.60;;;;;;7415415;19;19918;-79
2023/08/12 12:00:05;;;;;;;9.10;5.45;;;35.40;60.20;;;;;;7415894;19;19934;-80
2023/08/12 12:02:30;;;;;;;8.63;4.95;;;35.50;59.10;;;;;;7414731;19;19921;-80
2023/08/12 12:04:56;;;;;;;8.73;5.03;;;35.90;57.80;;;;;;7418420;19;19919;-80
2023/08/12 12:07:24;;;;;;;6.55;4.93;;;36.60;56.40;;;;;;7412858;19;20272;-79
2023/08/12 12:09:54;;;;;;;8.48;5.50;;;36.60;56.30;;;;;;7415310;19;19926;-80
2023/08/12 12:12:29;;;;;;;8.07;4.97;;;36.20;57.80;;;;;;7411737;19;19918;-80
2023/08/12 12:14:56;;;;;;;9.25;5.65;;;36.10;57.70;;;;;;7415396;19;19918;-81
2023/08/12 12:17:23;;;;;;;9.45;6.25;;;35.50;58.50;;;;;;7416349;19;19922;-80
2023/08/12 12:19:58;;;;;;;8.40;5.35;;;35.60;58.10;;;;;;7419240;19;19930;-80
2023/08/12 12:22:29;;;;;;;10.57;6.40;;;36.00;58.60;;;;;;7418887;19;20335;-80
2023/08/12 12:24:59;;;;;;;8.40;5.60;;;35.30;59.00;;;;;;7425067;19;19919;-81
2023/08/12 12:27:25;;;;;;;7.43;3.90;;;35.00;60.10;;;;;;7398871;19;20309;-80
2023/08/12 12:29:51;;;;;;;6.78;5.13;;;36.10;58.50;;;;;;7399691;19;19998;-80
2023/08/12 12:32:21;;;;;;;9.13;5.78;;;36.30;58.10;;;;;;7420595;19;19938;-80
2023/08/12 12:34:48;;;;;;;10.25;5.75;;;36.60;57.60;;;;;;7400420;19;19914;-81
2023/08/12 12:37:15;;;;;;;8.77;5.63;;;36.40;57.10;;;;;;7368211;19;19926;-81
2023/08/12 12:39:43;;;;;;;6.60;4.65;;;35.90;58.10;;;;;;7424201;19;19911;-79
2023/08/12 12:42:10;;;;;;;10.27;5.60;;;36.70;57.60;;;;;;7418595;19;19939;-81
2023/08/12 12:44:35;;;;;;;7.55;6.78;;;36.90;56.50;;;;;;7418271;19;19990;-80